Time;durP1;ratioP1;P1;durP2;ratioP2;P2;SDS_P1;SDS_P2;PMS_P1;PMS_P2;Temp;Humidity;BMP_temperature;BMP_pressure;BME280_temperature;BME280_humidity;BME280_pressure;Samples;Min_cycle;Max_cycle;Signal;HPM_P1;HPM_P2
2023/09/12 00:02:22;;;;;;;39.27;31.30;;;18.80;95.00;;;;;;5046215;28;20045;-70
2023/09/12 00:04:50;;;;;;;40.07;31.10;;;18.80;95.20;;;;;;5037552;28;20052;-71
2023/09/12 00:07:16;;;;;;;38.27;33.67;;;18.70;95.20;;;;;;5038053;28;20107;-70
2023/09/12 00:09:42;;;;;;;35.37;28.77;;;18.70;95.20;;;;;;5044142;28;20493;-70
2023/09/12 00:12:08;;;;;;;37.17;30.90;;;18.70;95.50;;;;;;5021291;28;20770;-70
2023/09/12 00:14:33;;;;;;;39.20;31.83;;;18.70;95.50;;;;;;5041342;28;20094;-70
2023/09/12 00:16:59;;;;;;;39.90;31.20;;;18.60;95.50;;;;;;5026975;28;20048;-70
2023/09/12 00:19:25;;;;;;;34.73;29.77;;;18.60;95.60;;;;;;5036345;28;20041;-70
2023/09/12 00:21:52;;;;;;;37.53;31.20;;;18.60;95.90;;;;;;5078582;28;20028;-70
2023/09/12 00:24:18;;;;;;;36.43;30.60;;;18.60;96.10;;;;;;5038044;28;20065;-70
2023/09/12 00:26:44;;;;;;;41.50;32.00;;;18.60;96.30;;;;;;5045414;28;20037;-70
2023/09/12 00:29:09;;;;;;;41.53;33.67;;;18.50;96.40;;;;;;5038717;28;20103;-70
2023/09/12 00:31:35;;;;;;;38.70;31.03;;;18.50;96.40;;;;;;5037503;28;20497;-70
2023/09/12 00:34:01;;;;;;;38.13;32.53;;;18.50;96.50;;;;;;5039186;28;20179;-70
2023/09/12 00:36:26;;;;;;;44.70;33.57;;;18.50;96.50;;;;;;5040228;28;20044;-70
2023/09/12 00:38:52;;;;;;;41.37;32.63;;;18.50;96.60;;;;;;5023235;28;20768;-70
2023/09/12 00:41:18;;;;;;;44.70;34.63;;;18.40;96.80;;;;;;5043766;28;20045;-70
2023/09/12 00:43:43;;;;;;;45.57;36.00;;;18.40;96.90;;;;;;5040227;28;20048;-70
2023/09/12 00:46:09;;;;;;;45.53;36.33;;;18.40;96.90;;;;;;5022378;28;20486;-70
2023/09/12 00:48:37;;;;;;;48.20;36.03;;;18.30;96.90;;;;;;5047293;28;20036;-70
2023/09/12 00:51:03;;;;;;;38.90;33.00;;;18.30;96.90;;;;;;5038989;28;20057;-70
2023/09/12 00:53:29;;;;;;;46.03;36.30;;;18.30;97.00;;;;;;5042085;28;20111;-70
2023/09/12 00:55:58;;;;;;;42.63;34.17;;;18.30;97.00;;;;;;5040731;28;20081;-70
2023/09/12 00:58:25;;;;;;;46.70;36.03;;;18.30;97.10;;;;;;5044628;28;20041;-70
2023/09/12 01:00:51;;;;;;;44.00;34.27;;;18.30;97.20;;;;;;5038052;28;20048;-70
2023/09/12 01:03:17;;;;;;;42.17;34.77;;;18.30;97.40;;;;;;5035693;28;20139;-70
2023/09/12 01:05:44;;;;;;;38.87;32.27;;;18.30;97.60;;;;;;5024030;28;20045;-70
2023/09/12 01:08:10;;;;;;;47.37;36.50;;;18.30;97.80;;;;;;5026410;28;20420;-70
2023/09/12 01:10:36;;;;;;;44.03;34.50;;;18.30;97.50;;;;;;5044031;28;20114;-70
2023/09/12 01:13:02;;;;;;;48.50;36.90;;;18.30;97.50;;;;;;5039711;28;20099;-70
2023/09/12 01:15:28;;;;;;;40.67;32.03;;;18.30;97.60;;;;;;5041132;28;20106;-70
2023/09/12 01:17:54;;;;;;;47.23;35.07;;;18.20;97.70;;;;;;5040045;28;20037;-70
2023/09/12 01:20:27;;;;;;;47.43;36.17;;;18.20;97.60;;;;;;5039016;28;20048;-70
2023/09/12 01:23:30;;;;;;;41.23;31.57;;;18.10;97.70;;;;;;5045525;28;20109;-70
2023/09/12 01:26:40;;;;;;;47.43;34.30;;;18.00;97.70;;;;;;5036541;28;20058;-70
2023/09/12 01:29:07;;;;;;;51.17;36.30;;;17.90;97.80;;;;;;5045612;28;20121;-70
2023/09/12 01:31:35;;;;;;;41.03;31.53;;;17.90;97.80;;;;;;5042962;28;20092;-70
2023/09/12 01:34:11;;;;;;;47.37;35.30;;;17.80;97.90;;;;;;5039894;28;20041;-70
2023/09/12 01:36:37;;;;;;;44.37;32.37;;;17.70;98.00;;;;;;5040005;28;20049;-70
2023/09/12 01:39:03;;;;;;;38.90;31.20;;;17.70;98.10;;;;;;5038644;28;20037;-70
2023/09/12 01:41:34;;;;;;;38.57;30.73;;;17.60;98.10;;;;;;5047042;28;20528;-70
2023/09/12 01:44:01;;;;;;;41.73;29.87;;;17.60;98.20;;;;;;5038090;28;20055;-70
2023/09/12 01:46:28;;;;;;;36.47;27.90;;;17.50;98.30;;;;;;5042034;28;20114;-70
2023/09/12 01:48:56;;;;;;;38.17;28.93;;;17.40;98.10;;;;;;5037980;28;20092;-70
2023/09/12 01:51:23;;;;;;;37.87;30.57;;;17.40;98.20;;;;;;5047854;28;20102;-70
2023/09/12 01:53:50;;;;;;;37.73;29.50;;;17.30;98.10;;;;;;5037915;28;20504;-70
2023/09/12 01:56:17;;;;;;;38.10;28.07;;;17.20;98.20;;;;;;5040355;28;20283;-70
2023/09/12 01:58:45;;;;;;;45.00;32.00;;;17.20;98.20;;;;;;5037239;28;20115;-70
2023/09/12 02:01:11;;;;;;;36.40;28.33;;;17.20;98.30;;;;;;5042894;28;20299;-70
2023/09/12 02:03:37;;;;;;;39.00;30.27;;;17.10;98.30;;;;;;5041748;28;20361;-70
2023/09/12 02:06:02;;;;;;;40.20;30.93;;;17.10;98.40;;;;;;5038795;28;20287;-70
2023/09/12 02:08:28;;;;;;;40.77;29.83;;;17.00;98.50;;;;;;5035263;28;20069;-70
2023/09/12 02:10:54;;;;;;;32.33;26.27;;;17.00;98.50;;;;;;5047170;28;20507;-70
2023/09/12 02:13:20;;;;;;;40.43;28.40;;;17.00;98.50;;;;;;5043225;28;20489;-70
2023/09/12 02:15:46;;;;;;;35.43;28.13;;;16.90;98.60;;;;;;5061349;28;20303;-70
2023/09/12 02:18:12;;;;;;;40.30;29.73;;;16.90;98.60;;;;;;5035524;28;20912;-70
2023/09/12 02:20:41;;;;;;;43.47;31.13;;;16.90;98.60;;;;;;5038042;28;20131;-70
2023/09/12 02:23:07;;;;;;;45.83;32.37;;;16.90;98.80;;;;;;5020208;28;20075;-70
2023/09/12 02:25:33;;;;;;;53.13;36.97;;;16.90;98.90;;;;;;5039981;28;20307;-70
2023/09/12 02:27:58;;;;;;;44.07;32.90;;;16.80;98.80;;;;;;5035238;28;20090;-70
2023/09/12 02:30:24;;;;;;;42.07;33.07;;;16.80;98.90;;;;;;5063989;28;20041;-70
2023/09/12 02:32:50;;;;;;;44.50;31.63;;;16.80;99.00;;;;;;5035767;28;20045;-70
2023/09/12 02:35:15;;;;;;;44.03;31.33;;;16.80;99.10;;;;;;5041840;28;20125;-70
2023/09/12 02:37:41;;;;;;;45.40;33.40;;;16.80;99.30;;;;;;5019612;28;20052;-70
2023/09/12 02:40:10;;;;;;;45.10;32.60;;;16.80;99.20;;;;;;5042426;28;20576;-70
2023/09/12 02:42:36;;;;;;;46.73;32.63;;;16.80;99.30;;;;;;5044845;28;20044;-70
2023/09/12 02:45:02;;;;;;;43.77;31.10;;;16.80;99.40;;;;;;5043081;28;20706;-70
2023/09/12 02:47:28;;;;;;;48.57;34.50;;;16.80;99.50;;;;;;5036807;28;20045;-70
2023/09/12 02:49:54;;;;;;;48.23;34.07;;;16.80;99.40;;;;;;5042868;28;20368;-70
2023/09/12 02:52:19;;;;;;;38.30;30.37;;;16.80;99.50;;;;;;5037055;28;20051;-70
2023/09/12 02:54:45;;;;;;;43.53;31.90;;;16.70;99.50;;;;;;5042887;28;20554;-70
2023/09/12 02:57:11;;;;;;;44.13;32.70;;;16.70;99.50;;;;;;5043273;28;20116;-70
2023/09/12 02:59:36;;;;;;;44.53;32.20;;;16.70;99.70;;;;;;5026280;28;20099;-70
2023/09/12 03:02:02;;;;;;;44.33;31.33;;;16.70;99.80;;;;;;5069571;28;20065;-70
2023/09/12 03:04:29;;;;;;;47.57;33.17;;;16.70;99.80;;;;;;5028241;28;20493;-70
2023/09/12 03:06:55;;;;;;;42.60;31.03;;;16.70;99.90;;;;;;5037715;28;20549;-70
2023/09/12 03:09:22;;;;;;;38.07;28.37;;;16.70;99.90;;;;;;5047177;28;20363;-70
2023/09/12 03:11:49;;;;;;;39.00;27.97;;;16.70;99.90;;;;;;5067840;28;20049;-70
2023/09/12 03:14:15;;;;;;;40.17;32.20;;;16.70;99.90;;;;;;5046320;28;20290;-70
2023/09/12 03:16:40;;;;;;;41.10;30.47;;;16.60;99.90;;;;;;5042727;28;20272;-70
2023/09/12 03:19:06;;;;;;;38.67;29.70;;;16.60;99.90;;;;;;5027949;28;20086;-70
2023/09/12 03:21:32;;;;;;;45.77;32.63;;;16.60;99.90;;;;;;5046301;28;20412;-70
2023/09/12 03:23:57;;;;;;;45.40;33.67;;;16.60;99.90;;;;;;5045477;28;20118;-70
2023/09/12 03:26:23;;;;;;;50.43;34.83;;;16.60;99.90;;;;;;5043405;28;20430;-70
2023/09/12 03:28:51;;;;;;;63.23;35.30;;;16.60;99.90;;;;;;5045101;28;20052;-70
2023/09/12 03:31:16;;;;;;;51.30;34.37;;;16.60;99.90;;;;;;5033812;28;20049;-70
2023/09/12 03:33:47;;;;;;;46.50;33.27;;;16.60;99.90;;;;;;5030705;28;20295;-70
2023/09/12 03:36:13;;;;;;;46.70;32.90;;;16.60;99.90;;;;;;5040524;28;20041;-70
2023/09/12 03:38:39;;;;;;;44.50;33.37;;;16.60;99.90;;;;;;5046829;28;20333;-70
2023/09/12 03:41:04;;;;;;;39.90;30.13;;;16.50;99.90;;;;;;5045441;28;20051;-70
2023/09/12 03:43:32;;;;;;;46.13;31.80;;;16.50;99.90;;;;;;5029921;28;20492;-70
2023/09/12 03:45:58;;;;;;;44.00;32.00;;;16.40;99.90;;;;;;5046512;28;20048;-70
2023/09/12 03:48:24;;;;;;;49.10;34.93;;;16.40;99.90;;;;;;5046587;28;20280;-70
2023/09/12 03:50:50;;;;;;;51.70;35.80;;;16.40;99.90;;;;;;5024754;28;20049;-70
2023/09/12 03:53:16;;;;;;;57.97;40.13;;;16.30;99.90;;;;;;5046329;28;20361;-70
2023/09/12 03:55:42;;;;;;;50.80;38.03;;;16.30;99.90;;;;;;5041053;28;20042;-70
2023/09/12 03:58:08;;;;;;;56.67;37.03;;;16.30;99.90;;;;;;5029667;28;20041;-70
2023/09/12 04:00:33;;;;;;;63.13;39.93;;;16.30;99.90;;;;;;5040444;28;20284;-70
2023/09/12 04:02:59;;;;;;;61.57;39.53;;;16.30;99.90;;;;;;5026943;28;20040;-70
2023/09/12 04:05:26;;;;;;;60.90;39.20;;;16.30;99.90;;;;;;5039312;28;20049;-70
2023/09/12 04:07:52;;;;;;;72.43;44.33;;;16.30;99.90;;;;;;5049007;28;20198;-70
2023/09/12 04:10:20;;;;;;;70.47;45.83;;;16.30;99.90;;;;;;5045120;28;20350;-70
2023/09/12 04:12:45;;;;;;;78.03;47.37;;;16.40;99.90;;;;;;5040065;28;20044;-70
2023/09/12 04:15:11;;;;;;;81.20;45.83;;;16.40;99.90;;;;;;5039806;28;20639;-70
2023/09/12 04:17:37;;;;;;;87.37;45.57;;;16.40;99.90;;;;;;5043577;28;20113;-70
2023/09/12 04:20:04;;;;;;;107.90;40.03;;;16.40;99.90;;;;;;5035783;28;20573;-70
2023/09/12 04:22:30;;;;;;;72.23;35.57;;;16.50;99.90;;;;;;5042715;28;20052;-70
2023/09/12 04:24:56;;;;;;;60.57;34.30;;;16.50;99.90;;;;;;5045303;28;20675;-70
2023/09/12 04:27:21;;;;;;;70.33;33.40;;;16.50;99.90;;;;;;5043220;28;20053;-70
2023/09/12 04:29:47;;;;;;;48.73;29.90;;;16.50;99.90;;;;;;5043396;28;20474;-70
2023/09/12 04:32:13;;;;;;;52.50;29.53;;;16.50;99.90;;;;;;5042447;28;20108;-70
2023/09/12 04:34:42;;;;;;;37.90;28.17;;;16.50;99.90;;;;;;5040032;28;20096;-70
2023/09/12 04:37:07;;;;;;;94.30;34.30;;;16.50;99.90;;;;;;5041927;28;20029;-70
2023/09/12 04:39:33;;;;;;;88.67;40.63;;;16.50;99.90;;;;;;5042170;28;20280;-70
2023/09/12 04:41:59;;;;;;;56.80;35.50;;;16.50;99.90;;;;;;5044635;28;20044;-70
2023/09/12 04:44:24;;;;;;;49.67;33.20;;;16.50;99.90;;;;;;5045681;28;20037;-70
2023/09/12 04:46:50;;;;;;;130.73;42.53;;;16.50;99.90;;;;;;5048821;28;20489;-70
2023/09/12 04:49:16;;;;;;;76.23;36.57;;;16.50;99.90;;;;;;5049200;28;20041;-70
2023/09/12 04:51:42;;;;;;;47.70;33.83;;;16.50;99.90;;;;;;5051433;28;20032;-71
2023/09/12 04:54:08;;;;;;;94.70;36.73;;;16.50;99.90;;;;;;5048672;28;20033;-71
2023/09/12 04:56:34;;;;;;;42.90;31.37;;;16.40;99.90;;;;;;5045336;28;20317;-71
2023/09/12 04:59:00;;;;;;;51.60;31.87;;;16.40;99.90;;;;;;5045710;28;20528;-71
2023/09/12 05:01:26;;;;;;;105.33;36.97;;;16.40;99.90;;;;;;5045338;28;20115;-71
2023/09/12 05:03:52;;;;;;;35.63;26.33;;;16.40;99.90;;;;;;5042839;28;20516;-71
2023/09/12 05:06:17;;;;;;;39.10;24.73;;;16.40;99.90;;;;;;5047217;28;20040;-71
2023/09/12 05:08:43;;;;;;;44.13;26.03;;;16.40;99.90;;;;;;5047684;28;20089;-71
2023/09/12 05:11:09;;;;;;;63.23;28.67;;;16.40;99.90;;;;;;5041617;28;20079;-72
2023/09/12 05:13:35;;;;;;;50.77;27.20;;;16.40;99.90;;;;;;5030665;28;20112;-71
2023/09/12 05:16:00;;;;;;;71.27;33.83;;;16.40;99.90;;;;;;5046607;28;20362;-71
2023/09/12 05:18:26;;;;;;;77.93;36.83;;;16.40;99.90;;;;;;5047067;28;20083;-71
2023/09/12 05:20:52;;;;;;;80.33;33.90;;;16.40;99.90;;;;;;5037946;28;20048;-71
2023/09/12 05:23:18;;;;;;;42.27;28.20;;;16.50;99.90;;;;;;5041416;28;20057;-71
2023/09/12 05:25:43;;;;;;;72.80;33.40;;;16.50;99.90;;;;;;5045130;28;20144;-71
2023/09/12 05:28:09;;;;;;;71.53;32.47;;;16.50;99.90;;;;;;5040584;28;20060;-71
2023/09/12 05:30:35;;;;;;;147.07;38.40;;;16.50;99.90;;;;;;5045256;28;20055;-71
2023/09/12 05:33:01;;;;;;;69.07;39.20;;;16.50;99.90;;;;;;5052805;28;20476;-71
2023/09/12 05:35:27;;;;;;;37.57;32.40;;;16.60;99.90;;;;;;5054695;28;20037;-71
2023/09/12 05:37:53;;;;;;;66.67;35.33;;;16.60;99.90;;;;;;5040468;28;20342;-71
2023/09/12 05:40:19;;;;;;;60.33;39.83;;;16.60;99.90;;;;;;5045206;28;20044;-71
2023/09/12 05:42:44;;;;;;;48.53;34.13;;;16.70;99.90;;;;;;5045106;28;20644;-71
2023/09/12 05:45:10;;;;;;;44.20;34.20;;;16.80;99.90;;;;;;5045065;28;20044;-71
2023/09/12 05:47:36;;;;;;;60.17;41.47;;;16.80;99.90;;;;;;5044634;28;20339;-71
2023/09/12 05:50:06;;;;;;;56.57;39.67;;;16.90;99.90;;;;;;5047934;28;20315;-71
2023/09/12 05:52:32;;;;;;;68.53;44.03;;;17.00;99.90;;;;;;5049354;28;20386;-71
2023/09/12 05:54:58;;;;;;;60.67;41.30;;;17.10;99.90;;;;;;5047606;28;21205;-71
2023/09/12 05:57:24;;;;;;;61.70;42.60;;;17.10;99.90;;;;;;5046515;28;20367;-71
2023/09/12 05:59:50;;;;;;;61.93;45.67;;;17.20;99.90;;;;;;5045136;28;20043;-71
2023/09/12 06:02:17;;;;;;;63.57;47.67;;;17.30;99.90;;;;;;5046463;28;20044;-71
2023/09/12 06:04:43;;;;;;;78.17;47.70;;;17.30;99.90;;;;;;5045586;28;20084;-71
2023/09/12 06:07:09;;;;;;;82.17;44.97;;;17.40;99.90;;;;;;5047785;28;20285;-71
2023/09/12 06:09:35;;;;;;;72.80;44.77;;;17.40;99.90;;;;;;5048002;28;20283;-71
2023/09/12 06:12:02;;;;;;;71.50;40.83;;;17.40;99.90;;;;;;5047406;28;20041;-71
2023/09/12 06:14:27;;;;;;;58.33;37.40;;;17.50;99.90;;;;;;5048499;28;20079;-70
2023/09/12 06:16:53;;;;;;;60.13;37.77;;;17.50;99.90;;;;;;5047956;28;20691;-71
2023/09/12 06:19:19;;;;;;;50.63;34.50;;;17.60;99.90;;;;;;5047490;28;20154;-71
2023/09/12 06:21:45;;;;;;;56.47;36.53;;;17.60;99.90;;;;;;5049710;28;20527;-71
2023/09/12 06:24:23;;;;;;;55.53;39.07;;;17.60;99.90;;;;;;5049039;28;20041;-71
2023/09/12 06:26:50;;;;;;;59.00;46.10;;;17.70;99.90;;;;;;5033691;28;20075;-71
2023/09/12 06:29:15;;;;;;;54.50;43.17;;;17.80;99.90;;;;;;5029316;28;20064;-71
2023/09/12 06:31:41;;;;;;;59.77;40.13;;;17.90;99.90;;;;;;5042351;28;20676;-71
2023/09/12 06:34:10;;;;;;;55.77;44.67;;;18.00;99.90;;;;;;5030666;28;20047;-71
2023/09/12 06:36:39;;;;;;;58.53;50.00;;;18.10;99.90;;;;;;5030458;28;20529;-71
2023/09/12 06:39:05;;;;;;;54.87;41.63;;;18.10;99.90;;;;;;5030269;28;20049;-71
2023/09/12 06:41:31;;;;;;;56.33;44.13;;;18.20;99.90;;;;;;5018685;28;20056;-71
2023/09/12 06:43:58;;;;;;;61.43;40.10;;;18.20;99.90;;;;;;5060351;28;20134;-71
2023/09/12 06:46:24;;;;;;;58.87;49.63;;;18.30;99.90;;;;;;5047439;28;20041;-71
2023/09/12 06:48:50;;;;;;;65.37;57.53;;;18.30;99.90;;;;;;5053086;28;20051;-71
2023/09/12 06:51:17;;;;;;;62.83;45.93;;;18.30;99.90;;;;;;5052196;28;20509;-71
2023/09/12 06:53:43;;;;;;;64.53;51.07;;;18.40;99.90;;;;;;5036017;28;20043;-71
2023/09/12 06:56:08;;;;;;;59.70;48.93;;;18.40;99.90;;;;;;5051789;28;20111;-71
2023/09/12 06:58:34;;;;;;;58.20;48.90;;;18.50;99.90;;;;;;5053049;28;20040;-71
2023/09/12 07:01:06;;;;;;;58.07;47.90;;;18.50;99.90;;;;;;5051675;28;20052;-71
2023/09/12 07:03:33;;;;;;;58.47;48.83;;;18.50;99.90;;;;;;5035162;28;20076;-71
2023/09/12 07:05:59;;;;;;;61.20;49.53;;;18.60;99.90;;;;;;5051674;28;20049;-71
2023/09/12 07:08:25;;;;;;;57.47;47.37;;;18.70;99.90;;;;;;5052975;28;20369;-71
2023/09/12 07:10:51;;;;;;;52.77;46.17;;;18.70;99.90;;;;;;5052086;28;20083;-71
2023/09/12 07:13:16;;;;;;;56.83;48.97;;;18.80;99.90;;;;;;5052583;28;20045;-71
2023/09/12 07:15:42;;;;;;;54.67;48.67;;;18.90;99.90;;;;;;5053023;28;20447;-71
2023/09/12 07:18:08;;;;;;;57.40;51.17;;;19.00;99.90;;;;;;5047283;28;20112;-71
2023/09/12 07:20:34;;;;;;;52.40;46.37;;;19.10;99.90;;;;;;5049282;28;20050;-71
2023/09/12 07:23:00;;;;;;;58.40;51.00;;;19.30;99.90;;;;;;5052117;28;20138;-71
2023/09/12 07:25:26;;;;;;;59.10;52.70;;;19.50;99.90;;;;;;5051050;28;20099;-71
2023/09/12 07:27:52;;;;;;;57.50;46.97;;;19.80;99.90;;;;;;5051365;28;20102;-71
2023/09/12 07:30:18;;;;;;;63.30;56.63;;;20.00;99.90;;;;;;5047452;28;20132;-71
2023/09/12 07:32:44;;;;;;;56.97;50.30;;;20.10;99.90;;;;;;5061154;28;20133;-71
2023/09/12 07:35:10;;;;;;;58.87;43.67;;;20.30;99.90;;;;;;5052055;28;20832;-71
2023/09/12 07:37:35;;;;;;;60.30;52.83;;;20.40;99.90;;;;;;5051934;28;20033;-71
2023/09/12 07:40:06;;;;;;;60.17;52.23;;;20.60;99.90;;;;;;5051667;28;20033;-71
2023/09/12 07:42:32;;;;;;;58.87;50.80;;;20.80;99.90;;;;;;5077453;28;20041;-71
2023/09/12 07:44:58;;;;;;;57.97;49.97;;;21.10;99.90;;;;;;5031639;28;20125;-71
2023/09/12 07:47:23;;;;;;;55.67;49.77;;;21.30;99.90;;;;;;5051999;28;20143;-71
2023/09/12 07:49:55;;;;;;;58.10;51.83;;;21.50;99.50;;;;;;5051825;28;20645;-71
2023/09/12 07:52:22;;;;;;;53.17;45.00;;;21.70;98.20;;;;;;5051640;28;20116;-71
2023/09/12 07:54:49;;;;;;;50.77;45.20;;;21.80;98.30;;;;;;5051710;28;20055;-71
2023/09/12 07:57:15;;;;;;;55.07;49.10;;;21.80;97.40;;;;;;5064552;28;20041;-71
2023/09/12 07:59:40;;;;;;;54.20;48.30;;;21.80;97.40;;;;;;5050523;28;20036;-71
2023/09/12 08:02:06;;;;;;;54.07;48.27;;;21.80;97.40;;;;;;5057952;28;20041;-71
2023/09/12 08:04:33;;;;;;;47.97;43.00;;;21.70;96.50;;;;;;5052069;28;20033;-71
2023/09/12 08:06:59;;;;;;;50.00;44.67;;;21.50;95.10;;;;;;5044620;28;20115;-71
2023/09/12 08:09:52;;;;;;;46.60;41.90;;;21.30;94.90;;;;;;5040008;28;20049;-71
2023/09/12 08:12:19;;;;;;;49.20;41.40;;;21.10;94.90;;;;;;5034041;28;20052;-71
2023/09/12 08:14:45;;;;;;;42.77;37.90;;;20.90;94.40;;;;;;5065754;28;20077;-71
2023/09/12 08:17:12;;;;;;;47.03;41.93;;;20.80;95.00;;;;;;5037339;28;20137;-71
2023/09/12 08:19:38;;;;;;;42.97;38.53;;;20.70;94.80;;;;;;5050037;28;20120;-71
2023/09/12 08:22:04;;;;;;;47.43;42.83;;;20.50;95.30;;;;;;5050318;28;20044;-71
2023/09/12 08:24:30;;;;;;;40.67;35.43;;;20.50;95.90;;;;;;5050992;28;20122;-71
2023/09/12 08:26:55;;;;;;;45.37;40.60;;;20.60;96.30;;;;;;5050944;28;20056;-71
2023/09/12 08:29:21;;;;;;;42.47;38.20;;;20.60;96.40;;;;;;5051281;28;20528;-71
2023/09/12 08:31:47;;;;;;;44.73;40.10;;;20.70;96.30;;;;;;5048024;28;20049;-71
2023/09/12 08:34:13;;;;;;;40.87;35.90;;;20.70;96.00;;;;;;5032656;28;20545;-71
2023/09/12 08:36:39;;;;;;;46.70;41.60;;;20.80;95.60;;;;;;5017092;28;20126;-71
2023/09/12 08:39:08;;;;;;;41.47;37.13;;;20.80;95.10;;;;;;5046397;28;20625;-71
2023/09/12 08:41:34;;;;;;;41.80;37.33;;;20.80;95.30;;;;;;5048226;28;20140;-71
2023/09/12 08:44:01;;;;;;;40.87;36.67;;;20.80;94.80;;;;;;5049210;28;20048;-71
2023/09/12 08:46:27;;;;;;;45.20;40.77;;;20.90;94.70;;;;;;5049424;28;20112;-71
2023/09/12 08:48:56;;;;;;;46.23;41.80;;;21.10;95.00;;;;;;5050633;28;20462;-71
2023/09/12 08:51:24;;;;;;;43.40;39.10;;;21.40;94.30;;;;;;5049121;28;20037;-71
2023/09/12 08:53:50;;;;;;;46.13;41.80;;;21.60;93.70;;;;;;5073080;28;20036;-71
2023/09/12 08:56:17;;;;;;;42.47;38.67;;;21.80;92.10;;;;;;5048252;28;20095;-71
2023/09/12 08:58:43;;;;;;;46.50;42.23;;;22.00;92.00;;;;;;5038635;28;20055;-71
2023/09/12 09:01:13;;;;;;;41.57;37.67;;;22.20;90.50;;;;;;5033631;28;20086;-71
2023/09/12 09:03:42;;;;;;;42.07;38.10;;;22.30;90.90;;;;;;5043262;28;20049;-71
2023/09/12 09:06:10;;;;;;;41.33;37.47;;;22.40;88.70;;;;;;5050464;28;20087;-71
2023/09/12 09:08:37;;;;;;;43.10;39.23;;;22.50;89.90;;;;;;5049002;28;20052;-71
2023/09/12 09:11:03;;;;;;;41.63;37.63;;;22.50;86.20;;;;;;5045479;28;20512;-71
2023/09/12 09:13:29;;;;;;;40.47;36.73;;;22.50;86.50;;;;;;5047727;28;20171;-71
2023/09/12 09:16:18;;;;;;;40.90;37.10;;;22.40;86.80;;;;;;5033292;28;20049;-71
2023/09/12 09:19:01;;;;;;;43.27;39.03;;;22.50;87.80;;;;;;5028834;28;20414;-71
2023/09/12 09:21:31;;;;;;;40.40;36.80;;;22.70;87.70;;;;;;5048928;28;20497;-71
2023/09/12 09:23:59;;;;;;;44.17;40.37;;;22.90;87.90;;;;;;5048453;28;20052;-71
2023/09/12 09:26:25;;;;;;;44.00;40.37;;;22.90;86.30;;;;;;5048991;28;20057;-71
2023/09/12 09:29:08;;;;;;;41.03;37.23;;;22.90;86.30;;;;;;5048371;28;20059;-71
2023/09/12 09:31:34;;;;;;;43.60;39.50;;;22.90;85.10;;;;;;5075336;28;20507;-71
2023/09/12 09:34:01;;;;;;;31.13;23.20;;;22.80;84.70;;;;;;5045658;28;20032;-71
2023/09/12 09:36:27;;;;;;;37.77;34.13;;;22.90;83.90;;;;;;5048485;28;20092;-71
2023/09/12 09:38:54;;;;;;;38.07;34.57;;;23.10;85.10;;;;;;5048298;28;20047;-71
2023/09/12 09:41:22;;;;;;;36.23;32.80;;;23.40;84.90;;;;;;5047355;28;20080;-72
2023/09/12 09:43:52;;;;;;;43.60;39.80;;;23.70;84.10;;;;;;5048814;28;20128;-72
2023/09/12 09:46:18;;;;;;;108.73;100.37;;;24.00;83.30;;;;;;5047526;28;20125;-72
2023/09/12 09:48:52;;;;;;;114.57;105.83;;;24.10;79.50;;;;;;5039803;28;20049;-71
2023/09/12 09:51:18;;;;;;;115.03;106.40;;;24.20;80.30;;;;;;5017212;28;20083;-71
2023/09/12 09:53:43;;;;;;;104.20;96.27;;;24.30;80.60;;;;;;5039602;28;20099;-71
2023/09/12 09:56:14;;;;;;;110.17;101.40;;;24.50;80.00;;;;;;5044523;28;20048;-71
2023/09/12 09:59:06;;;;;;;99.50;91.37;;;24.60;79.00;;;;;;5024426;28;20044;-71
2023/09/12 10:01:35;;;;;;;121.57;112.07;;;24.50;77.20;;;;;;5048618;28;20053;-71
2023/09/12 10:04:02;;;;;;;113.07;104.20;;;24.50;78.20;;;;;;5036635;28;20053;-71
2023/09/12 10:06:29;;;;;;;113.47;104.43;;;24.40;77.30;;;;;;5031444;28;20037;-71
2023/09/12 10:08:58;;;;;;;114.23;105.37;;;24.30;77.30;;;;;;5034299;28;20102;-71
2023/09/12 10:11:31;;;;;;;110.80;101.97;;;24.30;77.90;;;;;;5031198;28;20041;-71
2023/09/12 10:13:59;;;;;;;106.63;98.30;;;24.20;77.30;;;;;;5028942;28;20082;-71
2023/09/12 10:16:31;;;;;;;115.60;106.67;;;24.20;77.40;;;;;;5023912;28;20040;-71
2023/09/12 10:19:21;;;;;;;105.03;96.83;;;24.30;77.90;;;;;;5046976;28;20037;-72
2023/09/12 10:22:09;;;;;;;103.50;95.53;;;24.20;75.00;;;;;;5071931;28;20049;-72
2023/09/12 10:24:35;;;;;;;107.60;99.53;;;24.00;77.20;;;;;;5043638;28;20540;-72
2023/09/12 10:27:03;;;;;;;102.17;93.97;;;24.00;78.00;;;;;;5049043;28;20045;-72
2023/09/12 10:29:31;;;;;;;111.37;102.60;;;24.00;77.70;;;;;;5039236;28;20049;-72
2023/09/12 10:31:56;;;;;;;107.60;99.20;;;24.10;78.50;;;;;;5028903;28;20060;-72
2023/09/12 10:34:25;;;;;;;108.07;99.10;;;24.20;78.00;;;;;;5032566;28;20044;-72
2023/09/12 10:36:52;;;;;;;110.33;101.83;;;24.10;77.70;;;;;;5036979;28;20172;-72
2023/09/12 10:39:20;;;;;;;125.50;115.80;;;24.10;78.70;;;;;;5047518;28;20041;-72
2023/09/12 10:41:46;;;;;;;109.47;100.87;;;24.10;78.90;;;;;;5030782;28;20048;-72
2023/09/12 10:44:16;;;;;;;109.33;101.20;;;24.10;77.90;;;;;;5047503;28;20033;-72
2023/09/12 10:46:44;;;;;;;118.43;109.33;;;24.20;78.50;;;;;;5048346;28;20045;-72
2023/09/12 10:49:12;;;;;;;107.53;99.37;;;24.50;78.40;;;;;;5045123;28;20048;-72
2023/09/12 10:51:46;;;;;;;113.03;104.23;;;24.70;77.60;;;;;;5043891;28;20053;-72
2023/09/12 10:54:23;;;;;;;118.38;109.10;;;24.90;76.80;;;;;;5039048;28;20037;-72
2023/09/12 10:57:11;;;;;;;104.30;96.33;;;25.00;74.70;;;;;;5070472;28;20073;-72
2023/09/12 10:59:37;;;;;;;110.20;102.00;;;25.10;74.30;;;;;;5035831;28;20037;-72
2023/09/12 11:02:31;;;;;;;114.57;106.40;;;25.10;73.30;;;;;;5046169;28;20065;-72
2023/09/12 11:05:05;;;;;;;118.22;109.88;;;25.10;71.60;;;;;;5025702;28;20045;-72
2023/09/12 11:07:40;;;;;;;120.88;111.93;;;25.10;73.40;;;;;;5038524;28;20108;-72
2023/09/12 11:10:15;;;;;;;119.97;110.87;;;24.90;73.90;;;;;;5018628;28;20509;-72
2023/09/12 11:12:43;;;;;;;121.90;112.90;;;24.80;74.20;;;;;;5024401;28;20501;-72
2023/09/12 11:15:10;;;;;;;109.83;101.77;;;24.70;74.30;;;;;;5042860;28;20037;-72
2023/09/12 11:17:46;;;;;;;80.40;73.90;;;24.70;74.70;;;;;;5046783;28;20052;-72
2023/09/12 11:20:14;;;;;;;80.67;74.27;;;24.70;75.00;;;;;;5056801;28;20482;-72
2023/09/12 11:22:43;;;;;;;89.63;82.77;;;24.80;74.10;;;;;;5044743;28;20041;-72
2023/09/12 11:25:30;;;;;;;89.93;83.10;;;24.80;73.90;;;;;;5029517;28;20128;-72
2023/09/12 11:27:56;;;;;;;80.40;74.23;;;24.90;73.70;;;;;;5021872;28;20567;-72
2023/09/12 11:30:24;;;;;;;79.27;73.17;;;25.20;74.30;;;;;;5036890;28;20048;-71
2023/09/12 11:32:53;;;;;;;80.90;74.73;;;25.40;73.10;;;;;;5025375;28;20060;-72
2023/09/12 11:35:27;;;;;;;85.63;79.07;;;25.40;71.70;;;;;;5022347;28;20120;-71
2023/09/12 11:37:55;;;;;;;84.70;78.13;;;25.40;72.30;;;;;;5023603;28;20051;-72
2023/09/12 11:40:33;;;;;;;83.97;77.73;;;25.40;71.60;;;;;;5037096;28;20048;-72
2023/09/12 11:42:59;;;;;;;83.47;77.37;;;25.30;71.90;;;;;;5036841;28;20049;-72
2023/09/12 11:45:25;;;;;;;69.87;64.17;;;25.20;72.00;;;;;;5036088;28;20133;-71
2023/09/12 11:47:51;;;;;;;80.30;74.43;;;25.10;72.50;;;;;;5048087;28;20079;-71
2023/09/12 11:50:30;;;;;;;79.53;73.67;;;25.10;71.80;;;;;;5032748;28;20048;-71
2023/09/12 11:53:13;;;;;;;106.70;99.10;;;25.20;72.30;;;;;;5034930;28;20041;-71
2023/09/12 11:55:45;;;;;;;81.37;75.33;;;25.30;71.60;;;;;;5043660;28;20071;-71
2023/09/12 11:58:12;;;;;;;90.60;83.83;;;25.40;71.40;;;;;;5043174;28;20140;-71
2023/09/12 12:00:47;;;;;;;91.47;84.70;;;25.50;71.60;;;;;;5034888;28;20045;-72
2023/09/12 12:03:14;;;;;;;89.37;83.07;;;25.50;71.20;;;;;;5033043;28;20045;-72
2023/09/12 12:05:40;;;;;;;88.43;81.73;;;25.30;71.60;;;;;;5035556;28;20045;-71
2023/09/12 12:08:10;;;;;;;90.20;83.90;;;24.90;72.30;;;;;;5057125;28;20481;-72
2023/09/12 12:10:38;;;;;;;97.47;90.43;;;24.50;73.30;;;;;;5038334;28;20124;-71
2023/09/12 12:13:05;;;;;;;95.60;88.70;;;24.20;73.80;;;;;;5033450;28;20049;-71
2023/09/12 12:15:30;;;;;;;95.43;88.67;;;23.90;74.90;;;;;;5036024;28;20083;-71
2023/09/12 12:17:56;;;;;;;98.37;91.57;;;23.60;75.30;;;;;;5038616;28;20080;-71
2023/09/12 12:20:23;;;;;;;89.30;82.77;;;23.40;76.20;;;;;;5043966;28;20102;-71
2023/09/12 12:22:51;;;;;;;91.77;85.13;;;23.20;76.80;;;;;;5046253;28;20044;-71
2023/09/12 12:25:17;;;;;;;86.67;80.30;;;23.20;77.40;;;;;;5027386;28;20491;-71
2023/09/12 12:27:43;;;;;;;102.37;95.00;;;23.20;77.50;;;;;;5038405;28;20140;-71
2023/09/12 12:30:11;;;;;;;84.40;78.37;;;23.40;77.60;;;;;;5032715;28;20049;-71